Dar Mlodziezy — SQLZ — position and weather

sailwx.info

Track history (hours):
 
Tides and Currents Weather Stations Pressure Air Temp Water Temp Dewpoint Dewpoint Depression Visibility Wind Speed Wind Dir Waves Ship Positions

Dar Mlodziezy

Training ship for Gdynia Maritime University, Poland.

Ship's website: http://www.am.gdynia.pl/armator/darmlodziezy.php

Last reported at 2019-Apr-26 04:00 UTC. Time now 2019-Apr-26 04:03 UTC.
Position N 51°23' E 003°57'.

Length 95 m; beam 14 m.

Type: Sailing vessel. MMSI: 261148000.

Date/timePositionNaut miles runAvg speedWind from/ knotsBaromVisibWave heightAir tempDewpointWater temp
2019-Apr-26 04:00N 51°23' E 003°57'611.6
2019-Apr-26 03:31N 51°21' E 003°48'510.9
2019-Apr-26 03:00N 51°24' E 003°41'510.3
2019-Apr-26 02:30N 51°25' E 003°33'510.5
2019-Apr-26 02:00N 51°25' E 003°25'510.3
2019-Apr-26 01:30N 51°24' E 003°16'5 7.0
2019-Apr-26 00:51N 51°24' E 003°09'3 8.4
2019-Apr-26 00:30N 51°24' E 003°04'5 8.8
2019-Apr-26 00:00N 51°23' E 002°58'4 9.2
2019-Apr-25 23:30N 51°22' E 002°51'4 8.7
2019-Apr-25 23:01N 51°22' E 002°44'5 8.6
2019-Apr-25 22:28N 51°20' E 002°36'0 1.0
2019-Apr-25 22:00N 51°20' E 002°36'0 0.0
2019-Apr-25 21:30N 51°20' E 002°36'0 0.0
2019-Apr-25 21:00N 51°20' E 002°36'0 0.1
2019-Apr-25 20:29N 51°20' E 002°36'0 0.0
2019-Apr-25 20:00N 51°20' E 002°36'0 0.0
2019-Apr-25 19:30N 51°20' E 002°36'0 0.0
2019-Apr-25 19:00N 51°20' E 002°36'0 0.0
2019-Apr-25 18:26N 51°20' E 002°36'0 0.0
2019-Apr-25 17:38N 51°20' E 002°36'0 0.0
2019-Apr-25 17:26N 51°20' E 002°36'0 0.0
2019-Apr-25 16:58N 51°20' E 002°36'0 0.0
2019-Apr-25 16:17N 51°20' E 002°36'0 0.0
2019-Apr-25 15:45N 51°20' E 002°36'0 0.0
2019-Apr-25 15:26N 51°20' E 002°36'0 0.0
2019-Apr-25 14:57N 51°20' E 002°36'0 0.2
2019-Apr-25 14:26N 51°20' E 002°36'0 0.1
2019-Apr-25 14:00N 51°20' E 002°36'0 0.1
2019-Apr-25 13:23N 51°20' E 002°36'0 0.0
2019-Apr-25 12:49N 51°20' E 002°36'0 0.1
2019-Apr-25 12:29N 51°20' E 002°36'0 0.0
2019-Apr-25 11:58N 51°20' E 002°36'0 0.1
2019-Apr-25 11:25N 51°20' E 002°36'0 0.3
2019-Apr-25 10:59N 51°20' E 002°36'0 0.1
2019-Apr-25 10:17N 51°20' E 002°36'0 0.0
2019-Apr-25 09:44N 51°20' E 002°36'0 0.1
2019-Apr-25 09:29N 51°20' E 002°36'0 0.0
2019-Apr-25 08:57N 51°20' E 002°36'0 0.0
2019-Apr-25 08:04N 51°20' E 002°36'0 0.0
2019-Apr-25 07:59N 51°20' E 002°36'0 0.0
2019-Apr-25 07:24N 51°20' E 002°36'0 0.0
2019-Apr-25 06:50N 51°20' E 002°36'0 0.1
2019-Apr-25 06:20N 51°20' E 002°36'0 0.1
2019-Apr-25 05:54N 51°20' E 002°36'0 0.1
2019-Apr-25 05:25N 51°20' E 002°36'0 0.0
2019-Apr-25 04:59N 51°20' E 002°36'0 0.0
2019-Apr-25 04:14N 51°20' E 002°36'0 0.1
2019-Apr-25 04:00N 51°20' E 002°36'0 0.0
2019-Apr-25 03:28N 51°20' E 002°36'0 0.0
2019-Apr-25 02:42N 51°20' E 002°36'0 0.3
2019-Apr-25 02:30N 51°20' E 002°36'0 0.3
2019-Apr-25 01:58N 51°20' E 002°36'0 0.0
2019-Apr-25 01:30N 51°20' E 002°36'0 0.0
2019-Apr-25 00:50N 51°20' E 002°36'0 0.0
2019-Apr-25 00:20N 51°20' E 002°36'0 0.0
2019-Apr-25 00:00N 51°20' E 002°36'0 0.0
2019-Apr-24 23:30N 51°20' E 002°36'0 0.0
2019-Apr-24 22:56N 51°20' E 002°36'0 0.0
2019-Apr-24 22:25N 51°20' E 002°36'0 0.1
2019-Apr-24 22:00N 51°20' E 002°36'0 0.0
2019-Apr-24 21:28N 51°20' E 002°36'0 0.1
2019-Apr-24 20:59N 51°20' E 002°36'0 0.0
2019-Apr-24 20:23N 51°20' E 002°36'0 0.1
2019-Apr-24 19:38N 51°20' E 002°36'0 0.1
2019-Apr-24 19:30N 51°20' E 002°36'0 0.0
2019-Apr-24 18:58N 51°20' E 002°36'0 0.0
2019-Apr-24 18:24N 51°20' E 002°36'0 0.0
2019-Apr-24 17:56N 51°20' E 002°36'0 0.0
2019-Apr-24 17:29N 51°20' E 002°36'0 0.0
2019-Apr-24 16:57N 51°20' E 002°36'0 0.0
2019-Apr-24 16:29N 51°20' E 002°36'0 0.0
2019-Apr-24 15:59N 51°20' E 002°36'0 0.0
2019-Apr-24 15:28N 51°20' E 002°36'0 0.4
2019-Apr-24 15:00N 51°20' E 002°36'2 3.6
2019-Apr-24 14:29N 51°22' E 002°34'4 9.0
2019-Apr-24 13:59N 51°21' E 002°27'5 9.1
2019-Apr-24 13:29N 51°18' E 002°20'4 8.6
2019-Apr-24 13:00N 51°16' E 002°15'4 7.9
2019-Apr-24 12:30N 51°14' E 002°10'4 7.0
2019-Apr-24 12:00N 51°12' E 002°05'3 6.5
2019-Apr-24 11:30N 51°11' E 002°00'3 6.0
2019-Apr-24 11:00N 51°10' E 001°56'3 5.6
2019-Apr-24 10:30N 51°08' E 001°52'3 5.5
2019-Apr-24 10:00N 51°07' E 001°48'3 5.4
2019-Apr-24 09:30N 51°05' E 001°45'3 5.6
2019-Apr-24 09:00N 51°03' E 001°42'2 3.8
2019-Apr-24 08:30N 51°01' E 001°40'3 5.4
2019-Apr-24 08:00N 50°59' E 001°37'3 5.9
2019-Apr-24 07:31N 50°57' E 001°34'3 6.2
2019-Apr-24 07:01N 50°55' E 001°31'4 6.6
2019-Apr-24 06:27N 50°52' E 001°29'3 6.3
2019-Apr-24 05:57N 50°49' E 001°27'3 5.8
2019-Apr-24 05:23N 50°45' E 001°26'6 6.5
2019-Apr-24 04:27N 50°40' E 001°21'4 6.9
2019-Apr-24 03:52N 50°37' E 001°16'3 7.1
2019-Apr-24 03:30N 50°36' E 001°13'4 7.4
2019-Apr-24 03:00N 50°33' E 001°09'21 7.2
2019-Apr-24 00:03N 50°24' E 000°39'1 8.1
2019-Apr-23 23:59N 50°24' E 000°38'5 8.2
2019-Apr-23 23:21N 50°23' E 000°30'11 7.9
2019-Apr-23 21:56N 50°20' E 000°13'5 6.9
2019-Apr-23 21:13N 50°19' E 000°06'1 6.2
2019-Apr-23 20:58N 50°18' E 000°03'3 5.5
2019-Apr-23 20:29N 50°18' W 000°01'2 4.7
2019-Apr-23 20:00N 50°17' W 000°04'2 4.2
2019-Apr-23 19:30N 50°17' W 000°07'2 3.8
2019-Apr-23 19:00N 50°16' W 000°10'2 3.6
2019-Apr-23 18:31N 50°16' W 000°13'2 3.3
2019-Apr-23 18:00N 50°15' W 000°15'1 2.8
2019-Apr-23 17:30N 50°15' W 000°18'2 3.0
2019-Apr-23 17:00N 50°15' W 000°20'2 3.1
2019-Apr-23 16:30N 50°15' W 000°22'2 3.2
2019-Apr-23 15:46N 50°15' W 000°26'1 3.7
2019-Apr-23 15:30N 50°15' W 000°28'2 4.0
2019-Apr-23 15:01N 50°15' W 000°31'2 4.7
2019-Apr-23 14:31N 50°15' W 000°35'3 5.3
2019-Apr-23 14:00N 50°15' W 000°39'3 5.9
2019-Apr-23 13:31N 50°15' W 000°43'3 6.9
2019-Apr-23 13:00N 50°15' W 000°49'4 7.9
2019-Apr-23 12:30N 50°15' W 000°55'9 8.9
2019-Apr-23 11:30N 50°14' W 001°09'5 9.2
2019-Apr-23 11:00N 50°14' W 001°16'5 9.1
2019-Apr-23 10:29N 50°14' W 001°23'4 9.1
2019-Apr-23 10:00N 50°14' W 001°30'5 9.1
2019-Apr-23 09:30N 50°14' W 001°37'4 8.7
2019-Apr-23 09:00N 50°14' W 001°44'4 8.0
2019-Apr-23 08:31N 50°14' W 001°50'4 7.2
2019-Apr-23 08:00N 50°14' W 001°56'3 6.3
2019-Apr-23 07:30N 50°13' W 002°01'3 5.4
2019-Apr-23 07:01N 50°13' W 002°05'2 4.4
2019-Apr-23 06:30N 50°13' W 002°09'2 3.6
2019-Apr-23 05:59N 50°13' W 002°11'2 3.1
2019-Apr-23 05:17N 50°13' W 002°15'1 2.9
2019-Apr-23 05:00N 50°13' W 002°16'9 3.2
2019-Apr-23 02:17N 50°13' W 002°30'3 5.0
2019-Apr-23 01:43N 50°12' W 002°34'1 5.4
2019-Apr-23 01:30N 50°12' W 002°36'3 5.7
2019-Apr-23 01:00N 50°12' W 002°40'3 5.9
2019-Apr-23 00:31N 50°12' W 002°45'3 6.1
2019-Apr-23 00:00N 50°12' W 002°50'3 6.4
2019-Apr-22 23:31N 50°12' W 002°55'3 6.5
2019-Apr-22 23:01N 50°12' W 002°60'3 6.5
2019-Apr-22 22:31N 50°12' W 003°05'3 6.5
2019-Apr-22 22:01N 50°12' W 003°10'3 6.4
2019-Apr-22 21:31N 50°12' W 003°15'3 6.3
2019-Apr-22 21:01N 50°11' W 003°20'3 6.4
2019-Apr-22 20:31N 50°11' W 003°25'3 6.7
2019-Apr-22 20:01N 50°11' W 003°30'3 6.1
2019-Apr-22 19:30N 50°11' W 003°35'3 6.5
2019-Apr-22 19:00N 50°11' W 003°40'3 6.8
2019-Apr-22 18:31N 50°11' W 003°45'3 6.3
2019-Apr-22 18:00N 50°11' W 003°50'3 5.5
2019-Apr-22 17:30N 50°13' W 003°54'3 5.6
2019-Apr-22 17:00N 50°15' W 003°56'2 4.0
2019-Apr-22 16:31N 50°17' W 003°58'0 0.1
2019-Apr-22 15:55N 50°17' W 003°58'0 0.0
2019-Apr-22 15:30N 50°17' W 003°58'0 0.0
2019-Apr-22 14:59N 50°17' W 003°58'0 0.0
2019-Apr-22 14:30N 50°17' W 003°58'0 0.0
2019-Apr-22 13:49N 50°17' W 003°58'0 0.0
2019-Apr-22 13:16N 50°17' W 003°58'0 0.0
2019-Apr-22 12:55N 50°17' W 003°58'0 0.0
2019-Apr-22 12:28N 50°17' W 003°58'0 0.0
2019-Apr-22 12:00N 50°17' W 003°58'0 0.0
2019-Apr-22 11:26N 50°17' W 003°58'0 0.0
2019-Apr-22 10:58N 50°17' W 003°58'0 0.1
2019-Apr-22 10:31N 50°17' W 003°58'0 0.0
2019-Apr-22 10:00N 50°17' W 003°58'0 0.2
2019-Apr-22 09:31N 50°17' W 003°58'0 0.1
2019-Apr-22 09:01N 50°17' W 003°58'0 0.1
2019-Apr-22 08:31N 50°17' W 003°58'0 0.0
2019-Apr-22 08:00N 50°17' W 003°58'0 0.0
2019-Apr-22 07:30N 50°17' W 003°58'0 0.1
2019-Apr-22 07:00N 50°17' W 003°58'0 0.0
2019-Apr-22 06:31N 50°17' W 003°58'0 0.0
2019-Apr-22 06:01N 50°17' W 003°58'0 0.0
2019-Apr-22 05:30N 50°17' W 003°58'0 0.0
2019-Apr-22 05:01N 50°17' W 003°58'0 0.1
2019-Apr-22 04:31N 50°17' W 003°58'0 0.2
2019-Apr-22 04:00N 50°17' W 003°58'0 0.0
2019-Apr-22 03:30N 50°17' W 003°58'0 0.1
2019-Apr-22 03:00N 50°17' W 003°58'0 0.0
2019-Apr-22 02:30N 50°17' W 003°58'0 0.0
2019-Apr-22 02:00N 50°17' W 003°58'0 0.0
2019-Apr-22 01:30N 50°17' W 003°58'0 0.0
2019-Apr-22 01:00N 50°17' W 003°58'0 0.0
2019-Apr-22 00:28N 50°17' W 003°58'0 0.0
2019-Apr-22 00:00N 50°17' W 003°58'0 0.0
2019-Apr-21 23:30N 50°17' W 003°58'0 0.0
2019-Apr-21 23:01N 50°17' W 003°58'0 0.1
2019-Apr-21 22:30N 50°17' W 003°58'0 0.0
2019-Apr-21 22:00N 50°17' W 003°58'0 0.0
2019-Apr-21 21:31N 50°17' W 003°58'0 0.0
2019-Apr-21 20:57N 50°17' W 003°58'0 0.0
2019-Apr-21 20:30N 50°17' W 003°58'0 0.0
2019-Apr-21 20:00N 50°17' W 003°58'0 0.0
2019-Apr-21 19:30N 50°17' W 003°58'0 0.0
2019-Apr-21 19:00N 50°17' W 003°58'0 0.0
2019-Apr-21 18:31N 50°17' W 003°58'0 0.0
2019-Apr-21 18:01N 50°17' W 003°58'0 0.0
2019-Apr-21 17:30N 50°17' W 003°58'0 0.0
2019-Apr-21 17:00N 50°17' W 003°58'0 0.0
2019-Apr-21 15:40N 50°17' W 003°58'0 0.2
2019-Apr-21 15:29N 50°17' W 003°58'0 0.0
2019-Apr-21 14:59N 50°17' W 003°58'0 0.0
2019-Apr-21 14:26N 50°17' W 003°58'0 0.0
2019-Apr-21 14:00N 50°17' W 003°58'0 0.0
2019-Apr-21 12:57N 50°17' W 003°58'0 0.0
2019-Apr-21 12:30N 50°17' W 003°58'0 0.0
2019-Apr-21 11:57N 50°17' W 003°58'0 0.0
2019-Apr-21 11:18N 50°17' W 003°58'0 0.1
2019-Apr-21 11:00N 50°17' W 003°58'0 0.1
2019-Apr-21 10:30N 50°17' W 003°58'0 0.1
2019-Apr-21 10:00N 50°17' W 003°58'0 0.0
2019-Apr-21 09:24N 50°17' W 003°58'0 0.0
2019-Apr-21 09:00N 50°17' W 003°58'0 0.0
2019-Apr-21 08:30N 50°17' W 003°58'0 0.0
2019-Apr-21 08:00N 50°17' W 003°58'0 0.0
2019-Apr-21 07:29N 50°17' W 003°58'0 0.0
2019-Apr-21 07:00N 50°17' W 003°58'0 0.0
2019-Apr-21 06:30N 50°17' W 003°58'0 0.0
2019-Apr-21 06:00N 50°17' W 003°58'0 0.0
2019-Apr-21 05:30N 50°17' W 003°58'0 0.0
2019-Apr-21 05:00N 50°17' W 003°58'0 0.1
2019-Apr-21 04:30N 50°17' W 003°58'0 0.1
2019-Apr-21 04:00N 50°17' W 003°58'0 0.0
2019-Apr-21 03:30N 50°17' W 003°58'0 0.0
2019-Apr-21 03:00N 50°17' W 003°58'0 0.0
2019-Apr-21 02:30N 50°17' W 003°58'0 0.0
2019-Apr-21 01:57N 50°17' W 003°58'0 0.0
2019-Apr-21 01:30N 50°17' W 003°58'0 0.0
2019-Apr-21 01:00N 50°17' W 003°58'0 0.0
2019-Apr-21 00:30N 50°17' W 003°58'0 0.0
2019-Apr-21 00:00N 50°17' W 003°58'0 0.0
2019-Apr-20 23:30N 50°17' W 003°58'0 0.0
2019-Apr-20 23:00N 50°17' W 003°58'0 0.0
2019-Apr-20 22:30N 50°17' W 003°58'0 0.1
2019-Apr-20 22:00N 50°17' W 003°58'0 0.0
2019-Apr-20 21:30N 50°17' W 003°58'0 0.0
2019-Apr-20 20:36N 50°17' W 003°58'0 0.0
2019-Apr-20 20:24N 50°17' W 003°58'0 0.0
2019-Apr-20 20:00N 50°17' W 003°58'0 0.0
2019-Apr-20 19:30N 50°17' W 003°58'0 0.0
2019-Apr-20 19:00N 50°17' W 003°58'0 0.0
2019-Apr-20 18:31N 50°17' W 003°58'0 0.0
2019-Apr-20 18:01N 50°17' W 003°58'0 0.0
2019-Apr-20 17:26N 50°17' W 003°58'0 0.0
2019-Apr-20 17:01N 50°17' W 003°58'0 0.0
2019-Apr-20 16:31N 50°17' W 003°58'0 0.1
2019-Apr-20 15:56N 50°17' W 003°58'0 0.1
2019-Apr-20 15:30N 50°17' W 003°58'0 0.0
2019-Apr-20 14:51N 50°17' W 003°58'0 0.0
2019-Apr-20 14:30N 50°17' W 003°58'0 0.0
2019-Apr-20 14:00N 50°17' W 003°58'0 0.0
2019-Apr-20 13:18N 50°17' W 003°58'0 0.0
2019-Apr-20 12:54N 50°17' W 003°58'0 0.0
2019-Apr-20 12:27N 50°17' W 003°58'0 0.0
2019-Apr-20 11:48N 50°17' W 003°58'0 0.0
2019-Apr-20 11:11N 50°17' W 003°58'0 0.0
2019-Apr-20 11:00N 50°17' W 003°58'0 0.0
2019-Apr-20 10:30N 50°17' W 003°58'0 0.0
2019-Apr-20 10:00N 50°17' W 003°58'0 0.1
2019-Apr-20 09:30N 50°17' W 003°58'0 0.1
2019-Apr-20 09:00N 50°17' W 003°58'0 0.0
2019-Apr-20 08:31N 50°17' W 003°58'0 0.0
2019-Apr-20 08:00N 50°17' W 003°58'0 0.0
2019-Apr-20 07:30N 50°17' W 003°58'0 0.0
2019-Apr-20 06:58N 50°17' W 003°58'0 0.0
2019-Apr-20 06:30N 50°17' W 003°58'0 0.0
2019-Apr-20 06:00N 50°17' W 003°58'0 0.0
2019-Apr-20 05:30N 50°17' W 003°58'0 0.0
2019-Apr-20 05:01N 50°17' W 003°58'0 0.1
2019-Apr-20 04:30N 50°17' W 003°58'0 0.1
2019-Apr-20 04:01N 50°17' W 003°58'0 0.2
2019-Apr-20 03:30N 50°17' W 003°58'0 0.0
2019-Apr-20 02:58N 50°17' W 003°58'0 0.0
2019-Apr-20 02:30N 50°17' W 003°58'0 0.0
2019-Apr-20 01:57N 50°17' W 003°58'0 0.0
2019-Apr-20 01:27N 50°17' W 003°58'0 0.0
2019-Apr-20 00:57N 50°17' W 003°58'0 0.0
2019-Apr-20 00:30N 50°17' W 003°58'0 0.0
2019-Apr-20 00:01N 50°17' W 003°58'0 0.0
2019-Apr-19 23:30N 50°17' W 003°58'0 0.0
2019-Apr-19 22:59N 50°17' W 003°58'0 0.0
2019-Apr-19 22:30N 50°17' W 003°58'0 0.0
2019-Apr-19 22:01N 50°17' W 003°58'0 0.0
2019-Apr-19 21:30N 50°17' W 003°58'0 0.1
2019-Apr-19 21:00N 50°17' W 003°58'0 0.0
2019-Apr-19 20:30N 50°17' W 003°58'0 0.0
2019-Apr-19 20:00N 50°17' W 003°58'0 0.0
2019-Apr-19 19:29N 50°17' W 003°58'0 0.0
2019-Apr-19 19:00N 50°17' W 003°58'0 0.0
2019-Apr-19 18:31N 50°17' W 003°58'0 0.0
2019-Apr-19 18:00N 50°17' W 003°58'0 0.0
2019-Apr-19 17:31N 50°17' W 003°58'0 0.1
2019-Apr-19 16:58N 50°17' W 003°58'0 0.2
2019-Apr-19 16:30N 50°17' W 003°58'0 0.0
2019-Apr-19 16:01N 50°17' W 003°58'0 0.2
2019-Apr-19 15:30N 50°17' W 003°58'0 0.1
2019-Apr-19 14:58N 50°17' W 003°58'0 0.0
2019-Apr-19 14:30N 50°17' W 003°58'0 0.0
2019-Apr-19 13:54N 50°17' W 003°58'0 0.0
2019-Apr-19 13:30N 50°17' W 003°58'0 0.2
2019-Apr-19 13:01N 50°17' W 003°58'3 5.0
2019-Apr-19 12:29N 50°15' W 004°01'3 6.8
2019-Apr-19 12:00N 50°13' W 004°04'3 6.5
2019-Apr-19 11:30N 50°10' W 004°08'22 6.2
2019-Apr-19 08:01N 49°54' W 004°31'2 6.6
2019-Apr-19 07:38N 49°53' W 004°34'1 6.5
2019-Apr-19 07:25N 49°52' W 004°35'10 7.1
2019-Apr-19 05:56N 49°44' W 004°46'6 8.1
2019-Apr-19 05:13N 49°40' W 004°52'  
Track history (hours):
 
Tides and Currents Weather Stations Pressure Air Temp Water Temp Dewpoint Dewpoint Depression Visibility Wind Speed Wind Dir Waves Ship Positions

Dar Mlodziezy

Training ship for Gdynia Maritime University, Poland.

Ship's website: http://www.am.gdynia.pl/armator/darmlodziezy.php

Last reported at 2019-Apr-26 04:00 UTC. Time now 2019-Apr-26 04:03 UTC.
Position N 51°23' E 003°57'.

Length 95 m; beam 14 m.

Type: Sailing vessel. MMSI: 261148000.

Date/timePositionNaut miles runAvg speedWind from/ knotsBaromVisibWave heightAir tempDewpointWater temp
2019-Apr-26 04:00N 51°23' E 003°57'611.6
2019-Apr-26 03:31N 51°21' E 003°48'510.9
2019-Apr-26 03:00N 51°24' E 003°41'510.3
2019-Apr-26 02:30N 51°25' E 003°33'510.5
2019-Apr-26 02:00N 51°25' E 003°25'510.3
2019-Apr-26 01:30N 51°24' E 003°16'5 7.0
2019-Apr-26 00:51N 51°24' E 003°09'3 8.4
2019-Apr-26 00:30N 51°24' E 003°04'5 8.8
2019-Apr-26 00:00N 51°23' E 002°58'4 9.2
2019-Apr-25 23:30N 51°22' E 002°51'4 8.7
2019-Apr-25 23:01N 51°22' E 002°44'5 8.6
2019-Apr-25 22:28N 51°20' E 002°36'0 1.0
2019-Apr-25 22:00N 51°20' E 002°36'0 0.0
2019-Apr-25 21:30N 51°20' E 002°36'0 0.0
2019-Apr-25 21:00N 51°20' E 002°36'0 0.1
2019-Apr-25 20:29N 51°20' E 002°36'0 0.0
2019-Apr-25 20:00N 51°20' E 002°36'0 0.0
2019-Apr-25 19:30N 51°20' E 002°36'0 0.0
2019-Apr-25 19:00N 51°20' E 002°36'0 0.0
2019-Apr-25 18:26N 51°20' E 002°36'0 0.0
2019-Apr-25 17:38N 51°20' E 002°36'0 0.0
2019-Apr-25 17:26N 51°20' E 002°36'0 0.0
2019-Apr-25 16:58N 51°20' E 002°36'0 0.0
2019-Apr-25 16:17N 51°20' E 002°36'0 0.0
2019-Apr-25 15:45N 51°20' E 002°36'0 0.0
2019-Apr-25 15:26N 51°20' E 002°36'0 0.0
2019-Apr-25 14:57N 51°20' E 002°36'0 0.2
2019-Apr-25 14:26N 51°20' E 002°36'0 0.1
2019-Apr-25 14:00N 51°20' E 002°36'0 0.1
2019-Apr-25 13:23N 51°20' E 002°36'0 0.0
2019-Apr-25 12:49N 51°20' E 002°36'0 0.1
2019-Apr-25 12:29N 51°20' E 002°36'0 0.0
2019-Apr-25 11:58N 51°20' E 002°36'0 0.1
2019-Apr-25 11:25N 51°20' E 002°36'0 0.3
2019-Apr-25 10:59N 51°20' E 002°36'0 0.1
2019-Apr-25 10:17N 51°20' E 002°36'0 0.0
2019-Apr-25 09:44N 51°20' E 002°36'0 0.1
2019-Apr-25 09:29N 51°20' E 002°36'0 0.0
2019-Apr-25 08:57N 51°20' E 002°36'0 0.0
2019-Apr-25 08:04N 51°20' E 002°36'0 0.0
2019-Apr-25 07:59N 51°20' E 002°36'0 0.0
2019-Apr-25 07:24N 51°20' E 002°36'0 0.0
2019-Apr-25 06:50N 51°20' E 002°36'0 0.1
2019-Apr-25 06:20N 51°20' E 002°36'0 0.1
2019-Apr-25 05:54N 51°20' E 002°36'0 0.1
2019-Apr-25 05:25N 51°20' E 002°36'0 0.0
2019-Apr-25 04:59N 51°20' E 002°36'0 0.0
2019-Apr-25 04:14N 51°20' E 002°36'0 0.1
2019-Apr-25 04:00N 51°20' E 002°36'0 0.0
2019-Apr-25 03:28N 51°20' E 002°36'0 0.0
2019-Apr-25 02:42N 51°20' E 002°36'0 0.3
2019-Apr-25 02:30N 51°20' E 002°36'0 0.3
2019-Apr-25 01:58N 51°20' E 002°36'0 0.0
2019-Apr-25 01:30N 51°20' E 002°36'0 0.0
2019-Apr-25 00:50N 51°20' E 002°36'0 0.0
2019-Apr-25 00:20N 51°20' E 002°36'0 0.0
2019-Apr-25 00:00N 51°20' E 002°36'0 0.0
2019-Apr-24 23:30N 51°20' E 002°36'0 0.0
2019-Apr-24 22:56N 51°20' E 002°36'0 0.0
2019-Apr-24 22:25N 51°20' E 002°36'0 0.1
2019-Apr-24 22:00N 51°20' E 002°36'0 0.0
2019-Apr-24 21:28N 51°20' E 002°36'0 0.1
2019-Apr-24 20:59N 51°20' E 002°36'0 0.0
2019-Apr-24 20:23N 51°20' E 002°36'0 0.1
2019-Apr-24 19:38N 51°20' E 002°36'0 0.1
2019-Apr-24 19:30N 51°20' E 002°36'0 0.0
2019-Apr-24 18:58N 51°20' E 002°36'0 0.0
2019-Apr-24 18:24N 51°20' E 002°36'0 0.0
2019-Apr-24 17:56N 51°20' E 002°36'0 0.0
2019-Apr-24 17:29N 51°20' E 002°36'0 0.0
2019-Apr-24 16:57N 51°20' E 002°36'0 0.0
2019-Apr-24 16:29N 51°20' E 002°36'0 0.0
2019-Apr-24 15:59N 51°20' E 002°36'0 0.0
2019-Apr-24 15:28N 51°20' E 002°36'0 0.4
2019-Apr-24 15:00N 51°20' E 002°36'2 3.6
2019-Apr-24 14:29N 51°22' E 002°34'4 9.0
2019-Apr-24 13:59N 51°21' E 002°27'5 9.1
2019-Apr-24 13:29N 51°18' E 002°20'4 8.6
2019-Apr-24 13:00N 51°16' E 002°15'4 7.9
2019-Apr-24 12:30N 51°14' E 002°10'4 7.0
2019-Apr-24 12:00N 51°12' E 002°05'3 6.5
2019-Apr-24 11:30N 51°11' E 002°00'3 6.0
2019-Apr-24 11:00N 51°10' E 001°56'3 5.6
2019-Apr-24 10:30N 51°08' E 001°52'3 5.5
2019-Apr-24 10:00N 51°07' E 001°48'3 5.4
2019-Apr-24 09:30N 51°05' E 001°45'3 5.6
2019-Apr-24 09:00N 51°03' E 001°42'2 3.8
2019-Apr-24 08:30N 51°01' E 001°40'3 5.4
2019-Apr-24 08:00N 50°59' E 001°37'3 5.9
2019-Apr-24 07:31N 50°57' E 001°34'3 6.2
2019-Apr-24 07:01N 50°55' E 001°31'4 6.6
2019-Apr-24 06:27N 50°52' E 001°29'3 6.3
2019-Apr-24 05:57N 50°49' E 001°27'3 5.8
2019-Apr-24 05:23N 50°45' E 001°26'6 6.5
2019-Apr-24 04:27N 50°40' E 001°21'4 6.9
2019-Apr-24 03:52N 50°37' E 001°16'3 7.1
2019-Apr-24 03:30N 50°36' E 001°13'4 7.4
2019-Apr-24 03:00N 50°33' E 001°09'21 7.2
2019-Apr-24 00:03N 50°24' E 000°39'1 8.1
2019-Apr-23 23:59N 50°24' E 000°38'5 8.2
2019-Apr-23 23:21N 50°23' E 000°30'11 7.9
2019-Apr-23 21:56N 50°20' E 000°13'5 6.9
2019-Apr-23 21:13N 50°19' E 000°06'1 6.2
2019-Apr-23 20:58N 50°18' E 000°03'3 5.5
2019-Apr-23 20:29N 50°18' W 000°01'2 4.7
2019-Apr-23 20:00N 50°17' W 000°04'2 4.2
2019-Apr-23 19:30N 50°17' W 000°07'2 3.8
2019-Apr-23 19:00N 50°16' W 000°10'2 3.6
2019-Apr-23 18:31N 50°16' W 000°13'2 3.3
2019-Apr-23 18:00N 50°15' W 000°15'1 2.8
2019-Apr-23 17:30N 50°15' W 000°18'2 3.0
2019-Apr-23 17:00N 50°15' W 000°20'2 3.1
2019-Apr-23 16:30N 50°15' W 000°22'2 3.2
2019-Apr-23 15:46N 50°15' W 000°26'1 3.7
2019-Apr-23 15:30N 50°15' W 000°28'2 4.0
2019-Apr-23 15:01N 50°15' W 000°31'2 4.7
2019-Apr-23 14:31N 50°15' W 000°35'3 5.3
2019-Apr-23 14:00N 50°15' W 000°39'3 5.9
2019-Apr-23 13:31N 50°15' W 000°43'3 6.9
2019-Apr-23 13:00N 50°15' W 000°49'4 7.9
2019-Apr-23 12:30N 50°15' W 000°55'9 8.9
2019-Apr-23 11:30N 50°14' W 001°09'5 9.2
2019-Apr-23 11:00N 50°14' W 001°16'5 9.1
2019-Apr-23 10:29N 50°14' W 001°23'4 9.1
2019-Apr-23 10:00N 50°14' W 001°30'5 9.1
2019-Apr-23 09:30N 50°14' W 001°37'4 8.7
2019-Apr-23 09:00N 50°14' W 001°44'4 8.0
2019-Apr-23 08:31N 50°14' W 001°50'4 7.2
2019-Apr-23 08:00N 50°14' W 001°56'3 6.3
2019-Apr-23 07:30N 50°13' W 002°01'3 5.4
2019-Apr-23 07:01N 50°13' W 002°05'2 4.4
2019-Apr-23 06:30N 50°13' W 002°09'2 3.6
2019-Apr-23 05:59N 50°13' W 002°11'2 3.1
2019-Apr-23 05:17N 50°13' W 002°15'1 2.9
2019-Apr-23 05:00N 50°13' W 002°16'9 3.2
2019-Apr-23 02:17N 50°13' W 002°30'3 5.0
2019-Apr-23 01:43N 50°12' W 002°34'1 5.4
2019-Apr-23 01:30N 50°12' W 002°36'3 5.7
2019-Apr-23 01:00N 50°12' W 002°40'3 5.9
2019-Apr-23 00:31N 50°12' W 002°45'3 6.1
2019-Apr-23 00:00N 50°12' W 002°50'3 6.4
2019-Apr-22 23:31N 50°12' W 002°55'3 6.5
2019-Apr-22 23:01N 50°12' W 002°60'3 6.5
2019-Apr-22 22:31N 50°12' W 003°05'3 6.5
2019-Apr-22 22:01N 50°12' W 003°10'3 6.4
2019-Apr-22 21:31N 50°12' W 003°15'3 6.3
2019-Apr-22 21:01N 50°11' W 003°20'3 6.4
2019-Apr-22 20:31N 50°11' W 003°25'3 6.7
2019-Apr-22 20:01N 50°11' W 003°30'3 6.1
2019-Apr-22 19:30N 50°11' W 003°35'3 6.5
2019-Apr-22 19:00N 50°11' W 003°40'3 6.8
2019-Apr-22 18:31N 50°11' W 003°45'3 6.3
2019-Apr-22 18:00N 50°11' W 003°50'3 5.5
2019-Apr-22 17:30N 50°13' W 003°54'3 5.6
2019-Apr-22 17:00N 50°15' W 003°56'2 4.0
2019-Apr-22 16:31N 50°17' W 003°58'0 0.1
2019-Apr-22 15:55N 50°17' W 003°58'0 0.0
2019-Apr-22 15:30N 50°17' W 003°58'0 0.0
2019-Apr-22 14:59N 50°17' W 003°58'0 0.0
2019-Apr-22 14:30N 50°17' W 003°58'0 0.0
2019-Apr-22 13:49N 50°17' W 003°58'0 0.0
2019-Apr-22 13:16N 50°17' W 003°58'0 0.0
2019-Apr-22 12:55N 50°17' W 003°58'0 0.0
2019-Apr-22 12:28N 50°17' W 003°58'0 0.0
2019-Apr-22 12:00N 50°17' W 003°58'0 0.0
2019-Apr-22 11:26N 50°17' W 003°58'0 0.0
2019-Apr-22 10:58N 50°17' W 003°58'0 0.1
2019-Apr-22 10:31N 50°17' W 003°58'0 0.0
2019-Apr-22 10:00N 50°17' W 003°58'0 0.2
2019-Apr-22 09:31N 50°17' W 003°58'0 0.1
2019-Apr-22 09:01N 50°17' W 003°58'0 0.1
2019-Apr-22 08:31N 50°17' W 003°58'0 0.0
2019-Apr-22 08:00N 50°17' W 003°58'0 0.0
2019-Apr-22 07:30N 50°17' W 003°58'0 0.1
2019-Apr-22 07:00N 50°17' W 003°58'0 0.0
2019-Apr-22 06:31N 50°17' W 003°58'0 0.0
2019-Apr-22 06:01N 50°17' W 003°58'0 0.0
2019-Apr-22 05:30N 50°17' W 003°58'0 0.0
2019-Apr-22 05:01N 50°17' W 003°58'0 0.1
2019-Apr-22 04:31N 50°17' W 003°58'0 0.2
2019-Apr-22 04:00N 50°17' W 003°58'0 0.0
2019-Apr-22 03:30N 50°17' W 003°58'0 0.1
2019-Apr-22 03:00N 50°17' W 003°58'0 0.0
2019-Apr-22 02:30N 50°17' W 003°58'0 0.0
2019-Apr-22 02:00N 50°17' W 003°58'0 0.0
2019-Apr-22 01:30N 50°17' W 003°58'0 0.0
2019-Apr-22 01:00N 50°17' W 003°58'0 0.0
2019-Apr-22 00:28N 50°17' W 003°58'0 0.0
2019-Apr-22 00:00N 50°17' W 003°58'0 0.0
2019-Apr-21 23:30N 50°17' W 003°58'0 0.0
2019-Apr-21 23:01N 50°17' W 003°58'0 0.1
2019-Apr-21 22:30N 50°17' W 003°58'0 0.0
2019-Apr-21 22:00N 50°17' W 003°58'0 0.0
2019-Apr-21 21:31N 50°17' W 003°58'0 0.0
2019-Apr-21 20:57N 50°17' W 003°58'0 0.0
2019-Apr-21 20:30N 50°17' W 003°58'0 0.0
2019-Apr-21 20:00N 50°17' W 003°58'0 0.0
2019-Apr-21 19:30N 50°17' W 003°58'0 0.0
2019-Apr-21 19:00N 50°17' W 003°58'0 0.0
2019-Apr-21 18:31N 50°17' W 003°58'0 0.0
2019-Apr-21 18:01N 50°17' W 003°58'0 0.0
2019-Apr-21 17:30N 50°17' W 003°58'0 0.0
2019-Apr-21 17:00N 50°17' W 003°58'0 0.0
2019-Apr-21 15:40N 50°17' W 003°58'0 0.2
2019-Apr-21 15:29N 50°17' W 003°58'0 0.0
2019-Apr-21 14:59N 50°17' W 003°58'0 0.0
2019-Apr-21 14:26N 50°17' W 003°58'0 0.0
2019-Apr-21 14:00N 50°17' W 003°58'0 0.0
2019-Apr-21 12:57N 50°17' W 003°58'0 0.0
2019-Apr-21 12:30N 50°17' W 003°58'0 0.0
2019-Apr-21 11:57N 50°17' W 003°58'0 0.0
2019-Apr-21 11:18N 50°17' W 003°58'0 0.1
2019-Apr-21 11:00N 50°17' W 003°58'0 0.1
2019-Apr-21 10:30N 50°17' W 003°58'0 0.1
2019-Apr-21 10:00N 50°17' W 003°58'0 0.0
2019-Apr-21 09:24N 50°17' W 003°58'0 0.0
2019-Apr-21 09:00N 50°17' W 003°58'0 0.0
2019-Apr-21 08:30N 50°17' W 003°58'0 0.0
2019-Apr-21 08:00N 50°17' W 003°58'0 0.0
2019-Apr-21 07:29N 50°17' W 003°58'0 0.0
2019-Apr-21 07:00N 50°17' W 003°58'0 0.0
2019-Apr-21 06:30N 50°17' W 003°58'0 0.0
2019-Apr-21 06:00N 50°17' W 003°58'0 0.0
2019-Apr-21 05:30N 50°17' W 003°58'0 0.0
2019-Apr-21 05:00N 50°17' W 003°58'0 0.1
2019-Apr-21 04:30N 50°17' W 003°58'0 0.1
2019-Apr-21 04:00N 50°17' W 003°58'0 0.0
2019-Apr-21 03:30N 50°17' W 003°58'0 0.0
2019-Apr-21 03:00N 50°17' W 003°58'0 0.0
2019-Apr-21 02:30N 50°17' W 003°58'0 0.0
2019-Apr-21 01:57N 50°17' W 003°58'0 0.0
2019-Apr-21 01:30N 50°17' W 003°58'0 0.0
2019-Apr-21 01:00N 50°17' W 003°58'0 0.0
2019-Apr-21 00:30N 50°17' W 003°58'0 0.0
2019-Apr-21 00:00N 50°17' W 003°58'0 0.0
2019-Apr-20 23:30N 50°17' W 003°58'0 0.0
2019-Apr-20 23:00N 50°17' W 003°58'0 0.0
2019-Apr-20 22:30N 50°17' W 003°58'0 0.1
2019-Apr-20 22:00N 50°17' W 003°58'0 0.0
2019-Apr-20 21:30N 50°17' W 003°58'0 0.0
2019-Apr-20 20:36N 50°17' W 003°58'0 0.0
2019-Apr-20 20:24N 50°17' W 003°58'0 0.0
2019-Apr-20 20:00N 50°17' W 003°58'0 0.0
2019-Apr-20 19:30N 50°17' W 003°58'0 0.0
2019-Apr-20 19:00N 50°17' W 003°58'0 0.0
2019-Apr-20 18:31N 50°17' W 003°58'0 0.0
2019-Apr-20 18:01N 50°17' W 003°58'0 0.0
2019-Apr-20 17:26N 50°17' W 003°58'0 0.0
2019-Apr-20 17:01N 50°17' W 003°58'0 0.0
2019-Apr-20 16:31N 50°17' W 003°58'0 0.1
2019-Apr-20 15:56N 50°17' W 003°58'0 0.1
2019-Apr-20 15:30N 50°17' W 003°58'0 0.0
2019-Apr-20 14:51N 50°17' W 003°58'0 0.0
2019-Apr-20 14:30N 50°17' W 003°58'0 0.0
2019-Apr-20 14:00N 50°17' W 003°58'0 0.0
2019-Apr-20 13:18N 50°17' W 003°58'0 0.0
2019-Apr-20 12:54N 50°17' W 003°58'0 0.0
2019-Apr-20 12:27N 50°17' W 003°58'0 0.0
2019-Apr-20 11:48N 50°17' W 003°58'0 0.0
2019-Apr-20 11:11N 50°17' W 003°58'0 0.0
2019-Apr-20 11:00N 50°17' W 003°58'0 0.0
2019-Apr-20 10:30N 50°17' W 003°58'0 0.0
2019-Apr-20 10:00N 50°17' W 003°58'0 0.1
2019-Apr-20 09:30N 50°17' W 003°58'0 0.1
2019-Apr-20 09:00N 50°17' W 003°58'0 0.0
2019-Apr-20 08:31N 50°17' W 003°58'0 0.0
2019-Apr-20 08:00N 50°17' W 003°58'0 0.0
2019-Apr-20 07:30N 50°17' W 003°58'0 0.0
2019-Apr-20 06:58N 50°17' W 003°58'0 0.0
2019-Apr-20 06:30N 50°17' W 003°58'0 0.0
2019-Apr-20 06:00N 50°17' W 003°58'0 0.0
2019-Apr-20 05:30N 50°17' W 003°58'0 0.0
2019-Apr-20 05:01N 50°17' W 003°58'0 0.1
2019-Apr-20 04:30N 50°17' W 003°58'0 0.1
2019-Apr-20 04:01N 50°17' W 003°58'0 0.2
2019-Apr-20 03:30N 50°17' W 003°58'0 0.0
2019-Apr-20 02:58N 50°17' W 003°58'0 0.0
2019-Apr-20 02:30N 50°17' W 003°58'0 0.0
2019-Apr-20 01:57N 50°17' W 003°58'0 0.0
2019-Apr-20 01:27N 50°17' W 003°58'0 0.0
2019-Apr-20 00:57N 50°17' W 003°58'0 0.0
2019-Apr-20 00:30N 50°17' W 003°58'0 0.0
2019-Apr-20 00:01N 50°17' W 003°58'0 0.0
2019-Apr-19 23:30N 50°17' W 003°58'0 0.0
2019-Apr-19 22:59N 50°17' W 003°58'0 0.0
2019-Apr-19 22:30N 50°17' W 003°58'0 0.0
2019-Apr-19 22:01N 50°17' W 003°58'0 0.0
2019-Apr-19 21:30N 50°17' W 003°58'0 0.1
2019-Apr-19 21:00N 50°17' W 003°58'0 0.0
2019-Apr-19 20:30N 50°17' W 003°58'0 0.0
2019-Apr-19 20:00N 50°17' W 003°58'0 0.0
2019-Apr-19 19:29N 50°17' W 003°58'0 0.0
2019-Apr-19 19:00N 50°17' W 003°58'0 0.0
2019-Apr-19 18:31N 50°17' W 003°58'0 0.0
2019-Apr-19 18:00N 50°17' W 003°58'0 0.0
2019-Apr-19 17:31N 50°17' W 003°58'0 0.1
2019-Apr-19 16:58N 50°17' W 003°58'0 0.2
2019-Apr-19 16:30N 50°17' W 003°58'0 0.0
2019-Apr-19 16:01N 50°17' W 003°58'0 0.2
2019-Apr-19 15:30N 50°17' W 003°58'0 0.1
2019-Apr-19 14:58N 50°17' W 003°58'0 0.0
2019-Apr-19 14:30N 50°17' W 003°58'0 0.0
2019-Apr-19 13:54N 50°17' W 003°58'0 0.0
2019-Apr-19 13:30N 50°17' W 003°58'0 0.2
2019-Apr-19 13:01N 50°17' W 003°58'3 5.0
2019-Apr-19 12:29N 50°15' W 004°01'3 6.8
2019-Apr-19 12:00N 50°13' W 004°04'3 6.5
2019-Apr-19 11:30N 50°10' W 004°08'22 6.2
2019-Apr-19 08:01N 49°54' W 004°31'2 6.6
2019-Apr-19 07:38N 49°53' W 004°34'1 6.5
2019-Apr-19 07:25N 49°52' W 004°35'10 7.1
2019-Apr-19 05:56N 49°44' W 004°46'6 8.1
2019-Apr-19 05:13N 49°40' W 004°52'  

Dump ship's entire track history